createdAt,value
2023-03-30T00:00:05.795Z,8.3
2023-03-30T00:01:45.535Z,8.29
2023-03-30T00:03:25.315Z,8.28
2023-03-30T00:05:05.070Z,8.28
2023-03-30T00:06:44.870Z,8.3
2023-03-30T00:08:24.600Z,8.28
2023-03-30T00:10:04.364Z,8.27
2023-03-30T00:11:44.119Z,8.27
2023-03-30T00:13:23.908Z,8.25
2023-03-30T00:15:03.652Z,8.25
2023-03-30T00:16:43.421Z,8.26
2023-03-30T00:18:23.181Z,8.26
2023-03-30T00:20:02.936Z,8.24
2023-03-30T00:21:42.707Z,8.24
2023-03-30T00:23:22.469Z,8.24
2023-03-30T00:25:02.247Z,8.22
2023-03-30T00:26:42.008Z,8.22
2023-03-30T00:28:21.762Z,8.22
2023-03-30T00:30:01.543Z,8.22
2023-03-30T00:31:41.287Z,8.21
2023-03-30T00:33:21.052Z,8.18
2023-03-30T00:35:00.817Z,8.18
2023-03-30T00:36:40.575Z,8.18
2023-03-30T00:38:20.347Z,8.17
2023-03-30T00:40:00.106Z,8.14
2023-03-30T00:41:39.892Z,8.14
2023-03-30T00:43:19.637Z,8.14
2023-03-30T00:44:59.393Z,8.14
2023-03-30T00:46:39.160Z,8.14
2023-03-30T00:48:18.916Z,8.1
2023-03-30T00:49:58.687Z,8.1
2023-03-30T00:51:38.462Z,8.08
2023-03-30T00:53:18.217Z,8.08
2023-03-30T00:54:57.970Z,8.09
2023-03-30T00:56:37.733Z,8.09
2023-03-30T00:58:17.514Z,8.08
2023-03-30T00:59:57.267Z,8.08
2023-03-30T01:01:37.051Z,8.08
2023-03-30T01:03:16.805Z,8.07
2023-03-30T01:04:56.551Z,8.08
2023-03-30T01:06:36.348Z,8.08
2023-03-30T01:08:16.104Z,8.06
2023-03-30T01:09:55.840Z,8.06
2023-03-30T01:11:35.672Z,8.04
2023-03-30T01:13:15.404Z,8.04
2023-03-30T01:14:55.163Z,8.05
2023-03-30T01:16:34.903Z,8.04
2023-03-30T01:18:14.676Z,8.05
2023-03-30T01:19:54.431Z,8.04
2023-03-30T01:21:34.211Z,8.03
2023-03-30T01:23:13.984Z,8.03
2023-03-30T01:24:53.724Z,8.03
2023-03-30T01:26:33.495Z,8.02
2023-03-30T01:28:13.268Z,8.02
2023-03-30T01:29:53.017Z,8
2023-03-30T01:31:32.781Z,8
2023-03-30T01:33:12.553Z,8
2023-03-30T01:34:52.316Z,7.98
2023-03-30T01:36:32.089Z,7.98
2023-03-30T01:38:11.828Z,7.98
2023-03-30T01:39:51.605Z,7.98
2023-03-30T01:41:31.388Z,7.96
2023-03-30T01:43:11.130Z,7.96
2023-03-30T01:44:50.908Z,7.94
2023-03-30T01:46:30.655Z,7.93
2023-03-30T01:48:10.510Z,7.93
2023-03-30T01:49:50.199Z,7.93
2023-03-30T01:51:29.961Z,7.93
2023-03-30T01:53:09.719Z,7.91
2023-03-30T01:54:49.497Z,7.91
2023-03-30T01:56:29.250Z,7.9
2023-03-30T01:58:09.010Z,7.91
2023-03-30T01:59:48.761Z,7.9
2023-03-30T02:01:28.530Z,7.9
2023-03-30T02:03:08.322Z,7.9
2023-03-30T02:04:48.065Z,7.89
2023-03-30T02:06:27.837Z,7.9
2023-03-30T02:08:07.598Z,7.89
2023-03-30T02:09:47.351Z,7.89
2023-03-30T02:11:27.125Z,7.9
2023-03-30T02:13:06.890Z,7.88
2023-03-30T02:14:46.642Z,7.88
2023-03-30T02:16:26.407Z,7.88
2023-03-30T02:18:06.157Z,7.89
2023-03-30T02:19:45.941Z,7.87
2023-03-30T02:21:25.701Z,7.87
2023-03-30T02:23:05.457Z,7.88
2023-03-30T02:24:45.241Z,7.87
2023-03-30T02:26:25.015Z,7.86
2023-03-30T02:28:04.772Z,7.86
2023-03-30T02:29:44.556Z,7.88
2023-03-30T02:31:24.288Z,7.86
2023-03-30T02:33:04.060Z,7.87
2023-03-30T02:34:43.797Z,7.86
2023-03-30T02:36:23.570Z,7.87
2023-03-30T02:38:03.348Z,7.85
2023-03-30T02:39:43.096Z,7.84
2023-03-30T02:41:22.864Z,7.86
2023-03-30T02:43:02.626Z,7.85
2023-03-30T02:44:42.399Z,7.87
2023-03-30T02:46:22.159Z,7.86
2023-03-30T02:48:01.923Z,7.84
2023-03-30T02:49:41.683Z,7.86
2023-03-30T02:51:21.448Z,7.86
2023-03-30T02:53:01.226Z,7.84
2023-03-30T02:54:40.991Z,7.85
2023-03-30T02:56:20.754Z,7.85
2023-03-30T02:58:00.518Z,7.84
2023-03-30T02:59:40.268Z,7.84
2023-03-30T03:01:20.032Z,7.84
2023-03-30T03:02:59.794Z,7.84
2023-03-30T03:04:39.557Z,7.84
2023-03-30T03:06:19.313Z,7.82
2023-03-30T03:07:59.089Z,7.84
2023-03-30T03:09:38.857Z,7.83
2023-03-30T03:11:18.640Z,7.81
2023-03-30T03:12:58.378Z,7.83
2023-03-30T03:14:38.150Z,7.82
2023-03-30T03:16:17.905Z,7.82
2023-03-30T03:17:57.677Z,7.83
2023-03-30T03:19:37.447Z,7.82
2023-03-30T03:21:17.209Z,7.81
2023-03-30T03:22:56.988Z,7.81
2023-03-30T03:24:36.727Z,7.81
2023-03-30T03:26:16.479Z,7.8
2023-03-30T03:27:56.254Z,7.81
2023-03-30T03:29:36.054Z,7.79
2023-03-30T03:31:15.779Z,7.8
2023-03-30T03:32:55.546Z,7.79
2023-03-30T03:34:35.316Z,7.8
2023-03-30T03:36:15.072Z,7.77
2023-03-30T03:37:54.892Z,7.79
2023-03-30T03:39:34.604Z,7.78
2023-03-30T03:41:14.389Z,7.77
2023-03-30T03:42:54.136Z,7.78
2023-03-30T03:44:33.927Z,7.78
2023-03-30T03:46:13.664Z,7.78
2023-03-30T03:47:53.469Z,7.77
2023-03-30T03:49:33.184Z,7.79
2023-03-30T03:51:12.963Z,7.79
2023-03-30T03:52:52.747Z,7.78
2023-03-30T03:54:32.469Z,7.79
2023-03-30T03:56:12.227Z,7.8
2023-03-30T03:57:51.997Z,7.8
2023-03-30T03:59:31.771Z,7.78
2023-03-30T04:01:11.540Z,7.79
2023-03-30T04:02:51.310Z,7.8
2023-03-30T04:04:31.060Z,7.79
2023-03-30T04:06:10.826Z,7.8
2023-03-30T04:07:50.576Z,7.75
2023-03-30T04:09:30.364Z,7.77
2023-03-30T04:11:10.108Z,7.75
2023-03-30T04:12:49.880Z,7.76
2023-03-30T04:14:29.645Z,7.76
2023-03-30T04:16:09.404Z,7.76
2023-03-30T04:17:49.179Z,7.76
2023-03-30T04:19:28.921Z,7.77
2023-03-30T04:21:08.696Z,7.78
2023-03-30T04:22:48.500Z,7.77
2023-03-30T04:24:28.221Z,7.75
2023-03-30T04:26:08.000Z,7.75
2023-03-30T04:27:47.751Z,7.75
2023-03-30T04:29:27.531Z,7.74
2023-03-30T04:31:07.270Z,7.74
2023-03-30T04:32:47.048Z,7.72
2023-03-30T04:34:26.815Z,7.71
2023-03-30T04:36:06.569Z,7.72
2023-03-30T04:37:46.344Z,7.69
2023-03-30T04:39:26.093Z,7.63
2023-03-30T04:41:05.865Z,7.65
2023-03-30T04:42:45.636Z,7.67
2023-03-30T04:44:25.400Z,7.65
2023-03-30T04:46:05.158Z,7.67
2023-03-30T04:47:44.920Z,7.66
2023-03-30T04:49:24.681Z,7.69
2023-03-30T04:51:04.462Z,7.7
2023-03-30T04:52:44.220Z,7.7
2023-03-30T04:54:23.974Z,7.72
2023-03-30T04:56:03.749Z,7.72
2023-03-30T04:57:43.519Z,7.73
2023-03-30T04:59:23.281Z,7.72
2023-03-30T05:01:03.036Z,7.73
2023-03-30T05:02:42.797Z,7.71
2023-03-30T05:04:22.577Z,7.72
2023-03-30T05:06:02.320Z,7.7
2023-03-30T05:07:42.088Z,7.71
2023-03-30T05:09:21.854Z,7.72
2023-03-30T05:11:01.617Z,7.71
2023-03-30T05:12:41.404Z,7.73
2023-03-30T05:14:21.143Z,7.77
2023-03-30T05:16:00.913Z,7.74
2023-03-30T05:17:40.681Z,7.75
2023-03-30T05:19:20.428Z,7.77
2023-03-30T05:21:00.209Z,7.79
2023-03-30T05:22:40.099Z,7.8
2023-03-30T05:24:19.720Z,7.81
2023-03-30T05:25:59.510Z,7.81
2023-03-30T05:27:39.257Z,7.84
2023-03-30T05:29:19.015Z,7.86
2023-03-30T05:30:58.782Z,7.84
2023-03-30T05:32:38.544Z,7.84
2023-03-30T05:34:18.316Z,7.85
2023-03-30T05:35:58.082Z,7.83
2023-03-30T05:37:37.826Z,7.84
2023-03-30T05:39:17.626Z,7.87
2023-03-30T05:40:57.356Z,7.85
2023-03-30T05:42:37.137Z,7.81
2023-03-30T05:44:16.887Z,7.85
2023-03-30T05:45:56.653Z,7.89
2023-03-30T05:47:36.426Z,7.89
2023-03-30T05:49:16.195Z,7.87
2023-03-30T05:50:55.954Z,7.88
2023-03-30T05:52:35.719Z,7.91
2023-03-30T05:54:15.489Z,7.89
2023-03-30T05:55:55.245Z,7.88
2023-03-30T05:57:35.015Z,7.86
2023-03-30T05:59:14.771Z,7.89
2023-03-30T06:00:54.536Z,7.93
2023-03-30T06:02:34.297Z,7.92
2023-03-30T06:04:14.055Z,7.91
2023-03-30T06:05:53.831Z,7.94
2023-03-30T06:07:33.573Z,7.96
2023-03-30T06:09:13.355Z,7.96
2023-03-30T06:10:53.107Z,7.97
2023-03-30T06:12:32.870Z,7.98
2023-03-30T06:14:12.647Z,7.98
2023-03-30T06:15:52.468Z,7.97
2023-03-30T06:17:32.159Z,8
2023-03-30T06:19:11.937Z,8
2023-03-30T06:20:51.694Z,8
2023-03-30T06:22:31.464Z,8.04
2023-03-30T06:24:11.225Z,8.03
2023-03-30T06:25:51.000Z,8.06
2023-03-30T06:27:30.760Z,8.05
2023-03-30T06:29:10.511Z,8.07
2023-03-30T06:30:50.297Z,8.07
2023-03-30T06:32:30.058Z,8.08
2023-03-30T06:34:09.802Z,8.12
2023-03-30T06:35:49.586Z,8.14
2023-03-30T06:37:29.336Z,8.14
2023-03-30T06:39:09.099Z,8.2
2023-03-30T06:40:48.850Z,8.22
2023-03-30T06:42:28.630Z,8.25
2023-03-30T06:44:08.409Z,8.31
2023-03-30T06:45:48.164Z,8.34
2023-03-30T06:47:27.913Z,8.35
2023-03-30T06:49:07.679Z,8.37
2023-03-30T06:50:47.443Z,8.39
2023-03-30T06:52:27.211Z,8.42
2023-03-30T06:54:06.974Z,8.47
2023-03-30T06:55:47.016Z,8.5
2023-03-30T06:57:26.512Z,8.5
2023-03-30T06:59:06.267Z,8.52
2023-03-30T07:00:46.035Z,8.55
2023-03-30T07:02:25.796Z,8.54
2023-03-30T07:04:05.577Z,8.58
2023-03-30T07:05:45.342Z,8.58
2023-03-30T07:07:25.089Z,8.59
2023-03-30T07:09:04.856Z,8.6
2023-03-30T07:10:44.619Z,8.6
2023-03-30T07:12:24.391Z,8.64
2023-03-30T07:14:04.143Z,8.7
2023-03-30T07:15:43.923Z,8.68
2023-03-30T07:17:23.700Z,8.72
2023-03-30T07:19:03.471Z,8.76
2023-03-30T07:20:43.214Z,8.76
2023-03-30T07:22:22.976Z,8.84
2023-03-30T07:24:02.740Z,8.89
2023-03-30T07:25:42.521Z,8.97
2023-03-30T07:27:22.294Z,9.08
2023-03-30T07:29:02.031Z,9.1
2023-03-30T07:30:41.789Z,9.2
2023-03-30T07:32:21.553Z,9.29
2023-03-30T07:34:01.323Z,9.37
2023-03-30T07:35:41.125Z,9.42
2023-03-30T07:37:20.872Z,9.5
2023-03-30T07:39:00.607Z,9.57
2023-03-30T07:40:40.365Z,9.66
2023-03-30T07:42:20.140Z,9.71
2023-03-30T07:43:59.895Z,9.76
2023-03-30T07:45:39.737Z,9.84
2023-03-30T07:47:19.427Z,9.88
2023-03-30T07:48:59.183Z,9.96
2023-03-30T07:50:38.969Z,10
2023-03-30T07:52:18.727Z,10.06
2023-03-30T07:53:58.477Z,10.14
2023-03-30T07:55:38.252Z,10.22
2023-03-30T07:57:18.012Z,10.29
2023-03-30T07:58:57.773Z,10.34
2023-03-30T08:00:37.529Z,10.33
2023-03-30T08:02:17.287Z,10.44
2023-03-30T08:03:57.072Z,10.5
2023-03-30T08:05:36.840Z,10.55
2023-03-30T08:07:16.601Z,10.61
2023-03-30T08:08:56.365Z,10.7
2023-03-30T08:10:36.126Z,10.75
2023-03-30T08:12:15.892Z,10.85
2023-03-30T08:13:55.702Z,10.91
2023-03-30T08:15:35.441Z,10.98
2023-03-30T08:17:15.191Z,11.02
2023-03-30T08:18:55.002Z,11.09
2023-03-30T08:20:34.704Z,11.16
2023-03-30T08:22:14.483Z,11.21
2023-03-30T08:23:54.226Z,11.28
2023-03-30T08:25:34.017Z,11.35
2023-03-30T08:27:13.760Z,11.42
2023-03-30T08:28:53.538Z,11.52
2023-03-30T08:30:33.300Z,11.54
2023-03-30T08:32:13.102Z,11.65
2023-03-30T08:33:52.815Z,11.67
2023-03-30T08:35:32.598Z,11.79
2023-03-30T08:37:12.338Z,11.84
2023-03-30T08:38:52.101Z,11.91
2023-03-30T08:40:31.878Z,11.98
2023-03-30T08:42:11.664Z,12.06
2023-03-30T08:43:51.397Z,12.09
2023-03-30T08:45:31.164Z,12.17
2023-03-30T08:47:10.926Z,12.26
2023-03-30T08:48:50.713Z,12.32
2023-03-30T08:50:30.453Z,12.4
2023-03-30T08:52:10.225Z,12.46
2023-03-30T08:53:49.991Z,12.53
2023-03-30T08:55:29.768Z,12.62
2023-03-30T08:57:09.518Z,12.71
2023-03-30T08:58:49.261Z,12.75
2023-03-30T09:00:29.044Z,12.81
2023-03-30T09:02:08.812Z,12.87
2023-03-30T09:03:48.564Z,12.92
2023-03-30T09:05:28.334Z,12.94
2023-03-30T09:07:08.083Z,12.97
2023-03-30T09:08:47.865Z,13.04
2023-03-30T09:10:27.632Z,13.08
2023-03-30T09:12:07.400Z,13.12
2023-03-30T09:13:47.146Z,13.17
2023-03-30T09:15:26.916Z,13.21
2023-03-30T09:17:06.666Z,13.2
2023-03-30T09:18:46.456Z,13.19
2023-03-30T09:20:26.194Z,13.22
2023-03-30T09:22:05.966Z,13.32
2023-03-30T09:23:45.734Z,13.31
2023-03-30T09:25:25.512Z,13.37
2023-03-30T09:27:05.259Z,13.42
2023-03-30T09:28:45.013Z,13.44
2023-03-30T09:30:24.782Z,13.4
2023-03-30T09:32:04.568Z,13.5
2023-03-30T09:33:44.334Z,13.53
2023-03-30T09:35:24.097Z,13.58
2023-03-30T09:37:03.833Z,13.61
2023-03-30T09:38:43.602Z,13.65
2023-03-30T09:40:23.377Z,13.68
2023-03-30T09:42:03.128Z,13.73
2023-03-30T09:43:42.902Z,13.75
2023-03-30T09:45:22.697Z,13.78
2023-03-30T09:47:02.433Z,13.8
2023-03-30T09:48:42.191Z,13.8
2023-03-30T09:50:21.944Z,13.83
2023-03-30T09:52:01.722Z,13.84
2023-03-30T09:53:41.485Z,13.86
2023-03-30T09:55:21.241Z,13.89
2023-03-30T09:57:01.007Z,13.9
2023-03-30T09:58:40.769Z,13.93
2023-03-30T10:00:20.549Z,13.96
2023-03-30T10:02:00.297Z,13.96
2023-03-30T10:03:40.079Z,13.98
2023-03-30T10:05:19.845Z,14
2023-03-30T10:06:59.598Z,14.01
2023-03-30T10:08:39.364Z,14
2023-03-30T10:10:19.122Z,14
2023-03-30T10:11:58.878Z,14.02
2023-03-30T10:13:38.655Z,14.01
2023-03-30T10:15:18.423Z,14
2023-03-30T10:16:58.178Z,13.99
2023-03-30T10:18:37.939Z,14.01
2023-03-30T10:20:17.703Z,14
2023-03-30T10:21:57.481Z,13.98
2023-03-30T10:23:37.234Z,14
2023-03-30T10:25:16.994Z,13.98
2023-03-30T10:26:56.759Z,13.97
2023-03-30T10:28:36.518Z,13.96
2023-03-30T10:30:16.304Z,13.93
2023-03-30T10:31:56.066Z,13.9
2023-03-30T10:33:35.812Z,13.89
2023-03-30T10:35:15.607Z,13.88
2023-03-30T10:36:55.473Z,13.86
2023-03-30T10:38:35.119Z,13.88
2023-03-30T10:40:14.907Z,13.87
2023-03-30T10:41:54.668Z,13.89
2023-03-30T10:43:34.428Z,13.88
2023-03-30T10:45:14.172Z,13.9
2023-03-30T10:46:53.940Z,13.91
2023-03-30T10:48:33.734Z,13.94
2023-03-30T10:50:13.458Z,13.97
2023-03-30T10:51:53.336Z,13.99
2023-03-30T10:53:33.049Z,14
2023-03-30T10:55:12.753Z,14.06
2023-03-30T10:56:52.521Z,14.1
2023-03-30T10:58:32.344Z,14.12
2023-03-30T11:00:12.037Z,14.16
2023-03-30T11:01:51.813Z,14.13
2023-03-30T11:03:31.552Z,14.23
2023-03-30T11:05:11.361Z,14.26
2023-03-30T11:06:51.104Z,14.32
2023-03-30T11:08:30.856Z,14.35
2023-03-30T11:10:10.621Z,14.39
2023-03-30T11:11:50.384Z,14.44
2023-03-30T11:13:30.161Z,14.45
2023-03-30T11:15:09.899Z,14.49
2023-03-30T11:16:49.685Z,14.55
2023-03-30T11:18:29.452Z,14.52
2023-03-30T11:20:09.220Z,14.52
2023-03-30T11:21:48.991Z,14.52
2023-03-30T11:23:28.743Z,14.56
2023-03-30T11:25:08.522Z,14.54
2023-03-30T11:26:48.258Z,14.58
2023-03-30T11:28:28.035Z,14.59
2023-03-30T11:30:07.779Z,14.62
2023-03-30T11:31:47.573Z,14.65
2023-03-30T11:33:27.325Z,14.64
2023-03-30T11:35:07.066Z,14.66
2023-03-30T11:36:46.841Z,14.68
2023-03-30T11:38:26.618Z,14.72
2023-03-30T11:40:06.372Z,14.75
2023-03-30T11:41:46.152Z,14.77
2023-03-30T11:43:25.903Z,14.79
2023-03-30T11:45:05.667Z,14.81
2023-03-30T11:46:45.460Z,14.82
2023-03-30T11:48:25.231Z,14.85
2023-03-30T11:50:05.009Z,14.86
2023-03-30T11:51:44.727Z,14.87
2023-03-30T11:53:24.493Z,14.9
2023-03-30T11:55:04.300Z,14.95
2023-03-30T11:56:44.090Z,14.97
2023-03-30T11:58:23.769Z,15.03
2023-03-30T12:00:03.538Z,15.12
2023-03-30T12:01:43.304Z,15.19
2023-03-30T12:03:23.065Z,15.25
2023-03-30T12:05:02.845Z,15.29
2023-03-30T12:06:42.623Z,15.31
2023-03-30T12:08:22.366Z,15.34
2023-03-30T12:10:02.140Z,15.36
2023-03-30T12:11:41.887Z,15.38
2023-03-30T12:13:21.719Z,15.41
2023-03-30T12:15:01.446Z,15.48
2023-03-30T12:16:41.217Z,15.49
2023-03-30T12:18:20.956Z,15.56
2023-03-30T12:20:00.721Z,15.63
2023-03-30T12:21:40.529Z,15.72
2023-03-30T12:23:20.239Z,15.79
2023-03-30T12:25:00.025Z,15.84
2023-03-30T12:26:39.779Z,15.92
2023-03-30T12:28:19.530Z,15.91
2023-03-30T12:29:59.288Z,16.04
2023-03-30T12:31:39.083Z,16.12
2023-03-30T12:33:18.818Z,16.18
2023-03-30T12:34:58.627Z,16.24
2023-03-30T12:36:38.356Z,16.31
2023-03-30T12:38:18.117Z,16.39
2023-03-30T12:39:57.876Z,16.4
2023-03-30T12:41:37.655Z,16.51
2023-03-30T12:43:17.407Z,16.6
2023-03-30T12:44:57.171Z,16.69
2023-03-30T12:46:36.936Z,16.81
2023-03-30T12:48:16.705Z,16.9
2023-03-30T12:49:56.508Z,16.96
2023-03-30T12:51:36.218Z,16.99
2023-03-30T12:53:16.046Z,17.07
2023-03-30T12:54:55.751Z,17.14
2023-03-30T12:56:35.516Z,17.2
2023-03-30T12:58:15.281Z,17.28
2023-03-30T12:59:55.061Z,17.39
2023-03-30T13:01:34.810Z,17.48
2023-03-30T13:03:14.570Z,17.5
2023-03-30T13:04:54.351Z,17.54
2023-03-30T13:06:34.148Z,17.62
2023-03-30T13:08:13.868Z,17.62
2023-03-30T13:09:53.621Z,17.62
2023-03-30T13:11:33.408Z,17.69
2023-03-30T13:13:13.162Z,17.73
2023-03-30T13:14:52.923Z,17.79
2023-03-30T13:16:32.688Z,17.84
2023-03-30T13:18:12.453Z,17.9
2023-03-30T13:19:52.219Z,17.98
2023-03-30T13:21:31.992Z,17.99
2023-03-30T13:23:11.767Z,17.96
2023-03-30T13:24:51.508Z,18
2023-03-30T13:26:31.306Z,18.02
2023-03-30T13:28:11.071Z,18.01
2023-03-30T13:29:50.831Z,18.01
2023-03-30T13:31:30.562Z,18.04
2023-03-30T13:33:10.346Z,18.04
2023-03-30T13:34:50.095Z,18.01
2023-03-30T13:36:29.859Z,18.04
2023-03-30T13:39:49.368Z,18.06
2023-03-30T13:41:29.174Z,18.08
2023-03-30T13:43:08.912Z,18.09
2023-03-30T13:44:48.693Z,18.12
2023-03-30T13:46:28.422Z,18.12
2023-03-30T13:48:08.201Z,18.11
2023-03-30T13:49:48.008Z,18.08
2023-03-30T13:51:27.742Z,18.04
2023-03-30T13:53:07.503Z,17.95
2023-03-30T13:54:47.292Z,17.91
2023-03-30T13:56:27.024Z,17.79
2023-03-30T13:58:06.785Z,17.71
2023-03-30T13:59:46.558Z,17.65
2023-03-30T14:01:26.308Z,17.59
2023-03-30T14:03:06.123Z,17.52
2023-03-30T14:04:46.084Z,17.45
2023-03-30T14:06:25.603Z,17.4
2023-03-30T14:08:05.365Z,17.35
2023-03-30T14:09:45.250Z,17.29
2023-03-30T14:11:24.913Z,17.1
2023-03-30T14:13:04.652Z,16.51
2023-03-30T14:14:44.427Z,15.89
2023-03-30T14:16:24.182Z,15.47
2023-03-30T14:18:03.948Z,15.18
2023-03-30T14:19:43.779Z,14.98
2023-03-30T14:21:23.495Z,14.84
2023-03-30T14:23:03.237Z,14.75
2023-03-30T14:24:43.016Z,14.67
2023-03-30T14:26:22.770Z,14.62
2023-03-30T14:28:02.530Z,14.53
2023-03-30T14:29:42.317Z,14.47
2023-03-30T14:31:22.063Z,14.43
2023-03-30T14:33:01.860Z,14.4
2023-03-30T14:34:41.604Z,14.4
2023-03-30T14:36:21.355Z,14.35
2023-03-30T14:38:01.126Z,14.31
2023-03-30T14:39:40.879Z,14.27
2023-03-30T14:41:20.697Z,14.23
2023-03-30T14:43:00.416Z,14.2
2023-03-30T14:44:40.202Z,14.18
2023-03-30T14:46:19.997Z,14.13
2023-03-30T14:47:59.702Z,14.06
2023-03-30T14:49:39.463Z,14.02
2023-03-30T14:51:19.224Z,13.98
2023-03-30T14:52:58.995Z,13.95
2023-03-30T14:54:38.766Z,13.92
2023-03-30T14:56:18.518Z,13.88
2023-03-30T14:57:58.305Z,13.85
2023-03-30T14:59:38.047Z,13.8
2023-03-30T15:01:17.848Z,13.75
2023-03-30T15:02:57.592Z,13.72
2023-03-30T15:04:37.350Z,13.67
2023-03-30T15:06:17.104Z,13.61
2023-03-30T15:07:56.887Z,13.58
2023-03-30T15:09:36.646Z,13.55
2023-03-30T15:11:16.409Z,13.51
2023-03-30T15:12:56.182Z,13.49
2023-03-30T15:14:35.985Z,13.46
2023-03-30T15:16:15.691Z,13.41
2023-03-30T15:17:55.456Z,13.39
2023-03-30T15:19:35.216Z,13.37
2023-03-30T15:21:14.983Z,13.32
2023-03-30T15:22:54.731Z,13.28
2023-03-30T15:24:34.502Z,13.27
2023-03-30T15:26:14.283Z,13.26
2023-03-30T15:27:54.045Z,13.22
2023-03-30T15:29:33.866Z,13.21
2023-03-30T15:31:13.570Z,13.16
2023-03-30T15:32:53.330Z,13.13
2023-03-30T15:34:33.129Z,13.08
2023-03-30T15:36:12.862Z,13.01
2023-03-30T15:37:52.621Z,12.99
2023-03-30T15:39:32.387Z,12.96
2023-03-30T15:41:12.143Z,12.92
2023-03-30T15:42:51.908Z,12.85
2023-03-30T15:44:31.668Z,12.82
2023-03-30T15:46:11.485Z,12.79
2023-03-30T15:47:51.194Z,12.72
2023-03-30T15:49:30.973Z,12.72
2023-03-30T15:51:10.744Z,12.65
2023-03-30T15:52:50.504Z,12.61
2023-03-30T15:54:30.310Z,12.59
2023-03-30T15:56:10.030Z,12.57
2023-03-30T15:57:49.789Z,12.57
2023-03-30T15:59:29.568Z,12.55
2023-03-30T16:01:09.465Z,12.52
2023-03-30T16:02:49.117Z,12.5
2023-03-30T16:04:28.922Z,12.53
2023-03-30T16:06:08.606Z,12.49
2023-03-30T16:07:48.369Z,12.47
2023-03-30T16:09:28.183Z,12.46
2023-03-30T16:11:07.899Z,12.46
2023-03-30T16:12:47.661Z,12.45
2023-03-30T16:14:27.452Z,12.42
2023-03-30T16:16:07.199Z,12.42
2023-03-30T16:17:46.955Z,12.4
2023-03-30T16:19:26.726Z,12.35
2023-03-30T16:21:06.490Z,12.35
2023-03-30T16:22:46.265Z,12.32
2023-03-30T16:24:26.014Z,12.32
2023-03-30T16:26:05.787Z,12.29
2023-03-30T16:27:45.534Z,12.3
2023-03-30T16:29:25.344Z,12.28
2023-03-30T16:31:05.121Z,12.29
2023-03-30T16:32:44.832Z,12.35
2023-03-30T16:34:24.744Z,12.4
2023-03-30T16:36:04.354Z,12.41
2023-03-30T16:37:44.153Z,12.43
2023-03-30T16:39:23.882Z,12.44
2023-03-30T16:41:03.652Z,12.44
2023-03-30T16:42:43.409Z,12.41
2023-03-30T16:44:23.178Z,12.4
2023-03-30T16:46:02.932Z,12.37
2023-03-30T16:47:42.714Z,12.32
2023-03-30T16:49:22.474Z,12.3
2023-03-30T16:51:02.241Z,12.26
2023-03-30T16:52:42.006Z,12.22
2023-03-30T16:54:21.819Z,12.2
2023-03-30T16:56:01.550Z,12.17
2023-03-30T16:57:41.283Z,12.2
2023-03-30T16:59:21.052Z,12.23
2023-03-30T17:01:00.800Z,12.24
2023-03-30T17:02:40.587Z,12.24
2023-03-30T17:04:20.345Z,12.28
2023-03-30T17:06:00.109Z,12.26
2023-03-30T17:07:39.868Z,12.26
2023-03-30T17:09:19.646Z,12.25
2023-03-30T17:10:59.396Z,12.23
2023-03-30T17:12:39.164Z,12.2
2023-03-30T17:14:18.933Z,12.15
2023-03-30T17:15:58.686Z,12.09
2023-03-30T17:17:38.462Z,12.1
2023-03-30T17:19:18.269Z,12.07
2023-03-30T17:20:57.981Z,12.04
2023-03-30T17:22:37.754Z,12
2023-03-30T17:24:17.517Z,11.99
2023-03-30T17:25:57.270Z,11.96
2023-03-30T17:27:37.036Z,11.91
2023-03-30T17:29:16.807Z,11.83
2023-03-30T17:30:56.563Z,11.77
2023-03-30T17:32:36.331Z,11.73
2023-03-30T17:34:16.115Z,11.68
2023-03-30T17:35:55.855Z,11.64
2023-03-30T17:37:35.626Z,11.6
2023-03-30T17:39:15.399Z,11.57
2023-03-30T17:40:55.151Z,11.51
2023-03-30T17:42:34.928Z,11.49
2023-03-30T17:44:14.724Z,11.46
2023-03-30T17:45:54.453Z,11.41
2023-03-30T17:47:34.201Z,11.38
2023-03-30T17:49:13.988Z,11.33
2023-03-30T17:50:53.803Z,11.31
2023-03-30T17:52:33.498Z,11.27
2023-03-30T17:54:13.299Z,11.26
2023-03-30T17:55:53.087Z,11.22
2023-03-30T17:57:32.774Z,11.18
2023-03-30T17:59:12.659Z,11.16
2023-03-30T18:00:52.307Z,11.13
2023-03-30T18:02:32.084Z,11.1
2023-03-30T18:04:11.885Z,11.07
2023-03-30T18:05:51.612Z,11.03
2023-03-30T18:07:31.374Z,10.99
2023-03-30T18:09:11.138Z,10.94
2023-03-30T18:10:50.890Z,10.91
2023-03-30T18:12:30.669Z,10.89
2023-03-30T18:14:10.472Z,10.85
2023-03-30T18:15:50.191Z,10.82
2023-03-30T18:17:29.995Z,10.8
2023-03-30T18:19:09.719Z,10.78
2023-03-30T18:20:49.484Z,10.79
2023-03-30T18:22:29.245Z,10.77
2023-03-30T18:24:09.009Z,10.75
2023-03-30T18:25:48.781Z,10.74
2023-03-30T18:27:28.551Z,10.73
2023-03-30T18:29:08.288Z,10.72
2023-03-30T18:30:48.066Z,10.72
2023-03-30T18:32:27.819Z,10.71
2023-03-30T18:34:07.592Z,10.69
2023-03-30T18:35:47.387Z,10.64
2023-03-30T18:37:27.112Z,10.62
2023-03-30T18:39:06.875Z,10.58
2023-03-30T18:40:46.692Z,10.56
2023-03-30T18:42:26.438Z,10.5
2023-03-30T18:44:06.200Z,10.47
2023-03-30T18:45:45.952Z,10.44
2023-03-30T18:47:25.759Z,10.4
2023-03-30T18:49:05.528Z,10.37
2023-03-30T18:50:45.240Z,10.34
2023-03-30T18:52:25.004Z,10.31
2023-03-30T18:54:04.757Z,10.31
2023-03-30T18:55:44.526Z,10.31
2023-03-30T18:57:24.287Z,10.34
2023-03-30T18:59:04.105Z,10.36
2023-03-30T19:00:43.885Z,10.39
2023-03-30T19:02:23.576Z,10.41
2023-03-30T19:04:03.362Z,10.44
2023-03-30T19:05:43.201Z,10.45
2023-03-30T19:07:22.880Z,10.47
2023-03-30T19:09:02.739Z,10.5
2023-03-30T19:10:42.414Z,10.51
2023-03-30T19:12:22.166Z,10.53
2023-03-30T19:14:01.928Z,10.54
2023-03-30T19:15:41.694Z,10.54
2023-03-30T19:17:21.456Z,10.56
2023-03-30T19:19:01.221Z,10.56
2023-03-30T19:20:40.992Z,10.56
2023-03-30T19:22:20.753Z,10.59
2023-03-30T19:24:00.511Z,10.62
2023-03-30T19:25:40.295Z,10.61
2023-03-30T19:27:20.043Z,10.64
2023-03-30T19:28:59.792Z,10.66
2023-03-30T19:30:39.564Z,10.68
2023-03-30T19:32:19.324Z,10.69
2023-03-30T19:33:59.077Z,10.7
2023-03-30T19:35:38.865Z,10.7
2023-03-30T19:37:18.632Z,10.72
2023-03-30T19:38:58.384Z,10.74
2023-03-30T19:40:38.155Z,10.75
2023-03-30T19:42:17.921Z,10.76
2023-03-30T19:43:57.679Z,10.75
2023-03-30T19:45:37.458Z,10.74
2023-03-30T19:47:17.214Z,10.73
2023-03-30T19:48:56.987Z,10.73
2023-03-30T19:50:36.728Z,10.7
2023-03-30T19:52:16.501Z,10.66
2023-03-30T19:53:56.264Z,10.62
2023-03-30T19:55:36.020Z,10.59
2023-03-30T19:57:15.818Z,10.55
2023-03-30T19:58:55.563Z,10.53
2023-03-30T20:00:35.331Z,10.53
2023-03-30T20:02:15.086Z,10.51
2023-03-30T20:03:54.851Z,10.49
2023-03-30T20:05:34.606Z,10.48
2023-03-30T20:07:14.364Z,10.47
2023-03-30T20:08:54.145Z,10.47
2023-03-30T20:10:33.899Z,10.42
2023-03-30T20:12:13.678Z,10.41
2023-03-30T20:13:53.472Z,10.37
2023-03-30T20:15:33.184Z,10.33
2023-03-30T20:17:13.004Z,10.26
2023-03-30T20:18:52.719Z,10.18
2023-03-30T20:20:32.487Z,10.12
2023-03-30T20:22:12.247Z,10.03
2023-03-30T20:23:52.028Z,9.96
2023-03-30T20:25:31.767Z,9.92
2023-03-30T20:27:11.552Z,9.85
2023-03-30T20:28:51.353Z,9.83
2023-03-30T20:30:31.090Z,9.78
2023-03-30T20:32:10.823Z,9.77
2023-03-30T20:33:50.598Z,9.79
2023-03-30T20:35:30.366Z,9.81
2023-03-30T20:37:10.116Z,9.82
2023-03-30T20:38:49.886Z,9.82
2023-03-30T20:40:29.661Z,9.84
2023-03-30T20:42:09.411Z,9.84
2023-03-30T20:43:49.200Z,9.84
2023-03-30T20:45:29.001Z,9.87
2023-03-30T20:47:08.712Z,9.85
2023-03-30T20:48:48.471Z,9.88
2023-03-30T20:50:28.232Z,9.85
2023-03-30T20:52:08.026Z,9.83
2023-03-30T20:53:47.762Z,9.78
2023-03-30T20:55:27.545Z,9.76
2023-03-30T20:57:07.291Z,9.74
2023-03-30T20:58:47.084Z,9.7
2023-03-30T21:00:26.819Z,9.71
2023-03-30T21:02:06.595Z,9.7
2023-03-30T21:03:46.403Z,9.68
2023-03-30T21:05:26.126Z,9.64
2023-03-30T21:07:05.907Z,9.64
2023-03-30T21:08:45.646Z,9.64
2023-03-30T21:10:25.405Z,9.63
2023-03-30T21:12:05.213Z,9.62
2023-03-30T21:13:44.926Z,9.62
2023-03-30T21:15:24.706Z,9.62
2023-03-30T21:17:04.471Z,9.63
2023-03-30T21:18:44.228Z,9.62
2023-03-30T21:20:24.006Z,9.62
2023-03-30T21:22:03.760Z,9.6
2023-03-30T21:23:43.535Z,9.59
2023-03-30T21:25:23.327Z,9.59
2023-03-30T21:27:03.036Z,9.58
2023-03-30T21:28:42.811Z,9.58
2023-03-30T21:30:22.568Z,9.58
2023-03-30T21:32:02.335Z,9.58
2023-03-30T21:33:42.096Z,9.58
2023-03-30T21:35:21.887Z,9.6
2023-03-30T21:37:01.630Z,9.6
2023-03-30T21:38:41.386Z,9.62
2023-03-30T21:40:21.168Z,9.64
2023-03-30T21:42:00.915Z,9.64
2023-03-30T21:43:40.686Z,9.66
2023-03-30T21:45:20.452Z,9.67
2023-03-30T21:47:00.231Z,9.66
2023-03-30T21:48:39.969Z,9.66
2023-03-30T21:50:19.742Z,9.64